Terminal Aerodrome Forecast
Issued by NWS Missoula, MT

Home | Current Version | Previous Version | Text Only | Print | Product List | Glossary On
Versions: 1 2 3 4 5 6 7 8 9 10 11 12 13 14
065
FTUS45 KMSO 292320
TAFBTM
TAF
KBTM 292320Z 3000/3024 25011G20KT P6SM -SHRA OVC050
     FM300200 28007KT P6SM -SHRA OVC035
     FM300600 32005KT 4SM -RA BR OVC025
     FM301200 32005KT 3SM -RASN BR OVC025=

USA.gov is the U.S. government's official web portal to all federal, state and local government web resources and services.